createdAt,value
2023-03-22T00:03:01.145Z,31.11
2023-03-22T00:07:01.033Z,31.11
2023-03-22T00:11:00.955Z,31.12
2023-03-22T00:15:01.256Z,31.09
2023-03-22T00:19:00.856Z,31.08
2023-03-22T00:23:00.811Z,31.11
2023-03-22T00:27:00.823Z,31.03
2023-03-22T00:31:00.817Z,31.09
2023-03-22T00:35:00.682Z,31.06
2023-03-22T00:39:00.671Z,31.08
2023-03-22T00:43:00.647Z,31.06
2023-03-22T00:47:00.618Z,31.05
2023-03-22T00:51:00.577Z,30.99
2023-03-22T00:55:00.541Z,31.06
2023-03-22T00:59:00.492Z,31.02
2023-03-22T01:03:00.450Z,30.99
2023-03-22T01:07:00.432Z,30.99
2023-03-22T01:11:00.401Z,30.99
2023-03-22T01:15:00.381Z,30.97
2023-03-22T01:19:00.371Z,30.96
2023-03-22T01:23:00.358Z,31.01
2023-03-22T01:27:00.334Z,30.99
2023-03-22T01:31:00.389Z,30.98
2023-03-22T01:35:00.244Z,30.97
2023-03-22T01:39:00.207Z,30.97
2023-03-22T01:43:00.214Z,30.91
2023-03-22T01:47:00.190Z,30.94
2023-03-22T01:51:00.190Z,30.97
2023-03-22T01:55:00.159Z,30.94
2023-03-22T01:59:00.149Z,30.91
2023-03-22T02:03:00.202Z,30.86
2023-03-22T02:07:00.120Z,30.92
2023-03-22T02:11:00.069Z,30.91
2023-03-22T02:15:00.054Z,30.91
2023-03-22T02:19:00.030Z,30.91
2023-03-22T02:23:00.013Z,30.88
2023-03-22T02:26:59.990Z,30.85
2023-03-22T02:30:59.968Z,30.88
2023-03-22T02:34:59.933Z,30.86
2023-03-22T02:38:59.914Z,30.86
2023-03-22T02:43:00.304Z,30.81
2023-03-22T02:46:59.937Z,30.86
2023-03-22T02:50:59.857Z,30.81
2023-03-22T02:54:59.834Z,30.83
2023-03-22T02:58:59.815Z,30.81
2023-03-22T03:02:59.804Z,30.79
2023-03-22T03:06:59.780Z,30.78
2023-03-22T03:10:59.793Z,30.82
2023-03-22T03:14:59.777Z,30.76
2023-03-22T03:18:59.760Z,30.75
2023-03-22T03:22:59.746Z,30.74
2023-03-22T03:26:59.735Z,30.75
2023-03-22T03:30:59.715Z,30.78
2023-03-22T03:34:59.724Z,30.75
2023-03-22T03:38:59.705Z,30.73
2023-03-22T03:42:59.706Z,30.70
2023-03-22T03:46:59.695Z,30.69
2023-03-22T03:50:59.421Z,30.69
2023-03-22T03:54:59.154Z,30.66
2023-03-22T03:58:58.886Z,30.75
2023-03-22T04:02:58.624Z,30.72
2023-03-22T04:06:58.354Z,30.72
2023-03-22T04:10:58.087Z,30.61
2023-03-22T04:14:57.797Z,30.59
2023-03-22T04:18:57.528Z,30.52
2023-03-22T04:22:57.244Z,30.50
2023-03-22T04:26:56.966Z,30.39
2023-03-22T04:30:56.700Z,30.46
2023-03-22T04:34:56.389Z,30.32
2023-03-22T04:38:56.141Z,30.28
2023-03-22T04:42:56.004Z,30.31
2023-03-22T04:46:55.931Z,30.21
2023-03-22T04:50:55.741Z,30.24
2023-03-22T04:54:55.614Z,30.21
2023-03-22T04:58:55.487Z,30.16
2023-03-22T05:02:55.391Z,30.17
2023-03-22T05:06:55.220Z,30.13
2023-03-22T05:10:55.038Z,30.10
2023-03-22T05:14:54.894Z,30.13
2023-03-22T05:18:54.739Z,30.07
2023-03-22T05:22:54.594Z,30.07
2023-03-22T05:26:54.420Z,30.10
2023-03-22T05:30:56.661Z,30.02
2023-03-22T05:34:53.974Z,30.00
2023-03-22T05:38:53.680Z,30.02
2023-03-22T05:42:53.407Z,29.96
2023-03-22T05:46:53.189Z,29.96
2023-03-22T05:50:52.813Z,29.99
2023-03-22T05:54:52.474Z,29.98
2023-03-22T05:58:52.176Z,29.98
2023-03-22T06:02:51.888Z,29.93
2023-03-22T06:06:51.536Z,29.91
2023-03-22T06:10:51.209Z,29.88
2023-03-22T06:14:50.914Z,29.85
2023-03-22T06:18:50.577Z,29.88
2023-03-22T06:22:50.266Z,29.91
2023-03-22T06:26:49.944Z,29.88
2023-03-22T06:30:49.703Z,29.89
2023-03-22T06:34:49.326Z,29.90
2023-03-22T06:38:48.990Z,29.80
2023-03-22T06:42:48.656Z,29.82
2023-03-22T06:46:48.329Z,29.82
2023-03-22T06:50:48.142Z,29.81
2023-03-22T06:54:47.970Z,29.76
2023-03-22T06:58:47.773Z,29.81
2023-03-22T07:02:47.587Z,29.78
2023-03-22T07:06:47.387Z,29.70
2023-03-22T07:10:47.188Z,29.56
2023-03-22T07:14:46.956Z,29.43
2023-03-22T07:18:46.719Z,29.56
2023-03-22T07:22:46.472Z,29.98
2023-03-22T07:26:46.251Z,29.56
2023-03-22T07:30:45.947Z,29.47
2023-03-22T07:34:45.659Z,29.32
2023-03-22T07:38:45.374Z,29.15
2023-03-22T07:42:45.070Z,29.09
2023-03-22T07:46:44.864Z,29.02
2023-03-22T07:50:44.551Z,28.95
2023-03-22T07:54:44.250Z,28.92
2023-03-22T07:58:44.011Z,28.85
2023-03-22T08:02:43.746Z,28.81
2023-03-22T08:06:43.474Z,28.81
2023-03-22T08:10:43.253Z,28.84
2023-03-22T08:14:43.011Z,28.77
2023-03-22T08:18:44.408Z,28.78
2023-03-22T08:22:42.503Z,28.74
2023-03-22T08:26:42.138Z,28.68
2023-03-22T08:30:41.959Z,28.64
2023-03-22T08:34:41.456Z,28.66
2023-03-22T08:38:41.104Z,28.57
2023-03-22T08:42:40.829Z,28.61
2023-03-22T08:46:40.444Z,28.58
2023-03-22T08:50:40.082Z,28.55
2023-03-22T08:54:39.758Z,28.51
2023-03-22T08:58:39.380Z,28.42
2023-03-22T09:02:39.033Z,28.48
2023-03-22T09:06:38.919Z,28.36
2023-03-22T09:10:38.797Z,28.31
2023-03-22T09:14:38.661Z,28.30
2023-03-22T09:18:38.528Z,28.23
2023-03-22T09:22:38.374Z,28.19
2023-03-22T09:26:38.205Z,28.15
2023-03-22T09:30:38.430Z,28.15
2023-03-22T09:34:37.797Z,28.13
2023-03-22T09:38:37.538Z,28.03
2023-03-22T09:42:37.307Z,28.02
2023-03-22T09:46:37.228Z,27.94
2023-03-22T09:50:36.766Z,27.92
2023-03-22T09:54:36.491Z,27.92
2023-03-22T09:58:36.245Z,27.85
2023-03-22T10:02:36.006Z,27.79
2023-03-22T10:06:35.592Z,27.78
2023-03-22T10:10:35.268Z,27.80
2023-03-22T10:14:34.947Z,27.77
2023-03-22T10:18:34.661Z,27.77
2023-03-22T10:22:34.305Z,27.73
2023-03-22T10:26:33.960Z,27.74
2023-03-22T10:30:33.661Z,27.80
2023-03-22T10:34:33.302Z,27.79
2023-03-22T10:38:32.972Z,27.76
2023-03-22T10:42:32.610Z,27.79
2023-03-22T10:46:32.333Z,27.82
2023-03-22T10:50:31.957Z,27.77
2023-03-22T10:54:31.637Z,27.89
2023-03-22T10:58:31.298Z,27.85
2023-03-22T11:02:31.186Z,27.89
2023-03-22T11:06:30.654Z,27.95
2023-03-22T11:10:30.402Z,27.95
2023-03-22T11:14:30.052Z,28.03
2023-03-22T11:18:29.748Z,28.03
2023-03-22T11:22:29.427Z,28.11
2023-03-22T11:26:29.155Z,28.12
2023-03-22T11:30:28.807Z,28.10
2023-03-22T11:34:28.503Z,28.18
2023-03-22T11:38:28.205Z,28.25
2023-03-22T11:42:27.917Z,28.31
2023-03-22T11:46:27.679Z,28.34
2023-03-22T11:50:27.378Z,28.39
2023-03-22T11:54:27.117Z,28.39
2023-03-22T11:58:26.871Z,28.40
2023-03-22T12:02:26.770Z,28.50
2023-03-22T12:06:26.396Z,28.56
2023-03-22T12:10:26.136Z,28.52
2023-03-22T12:14:25.903Z,28.58
2023-03-22T12:18:25.674Z,28.58
2023-03-22T12:22:25.408Z,28.70
2023-03-22T12:26:25.176Z,28.67
2023-03-22T12:30:24.960Z,28.73
2023-03-22T12:34:24.730Z,28.75
2023-03-22T12:38:24.519Z,28.79
2023-03-22T12:42:24.338Z,28.81
2023-03-22T12:46:24.206Z,28.84
2023-03-22T12:50:23.959Z,28.91
2023-03-22T12:54:23.788Z,28.89
2023-03-22T12:58:23.670Z,28.90
2023-03-22T13:02:23.477Z,28.96
2023-03-22T13:06:23.309Z,28.98
2023-03-22T13:10:23.150Z,29.01
2023-03-22T13:14:22.993Z,29.02
2023-03-22T13:18:22.845Z,29.05
2023-03-22T13:22:22.719Z,29.06
2023-03-22T13:26:22.588Z,29.09
2023-03-22T13:30:22.447Z,29.13
2023-03-22T13:34:22.319Z,29.13
2023-03-22T13:38:22.218Z,29.15
2023-03-22T13:42:22.097Z,29.12
2023-03-22T13:46:22.163Z,29.20
2023-03-22T13:50:21.902Z,29.19
2023-03-22T13:54:21.753Z,29.20
2023-03-22T13:58:21.638Z,29.25
2023-03-22T14:02:21.552Z,29.23
2023-03-22T14:06:21.424Z,29.17
2023-03-22T14:10:21.328Z,29.19
2023-03-22T14:14:21.223Z,29.19
2023-03-22T14:18:20.968Z,29.21
2023-03-22T14:47:21.270Z,29.37
2023-03-22T14:51:21.313Z,29.28
2023-03-22T14:55:21.339Z,29.31
2023-03-22T14:59:21.369Z,29.29
2023-03-22T15:03:21.418Z,29.35
2023-03-22T15:07:21.409Z,29.36
2023-03-22T15:11:21.426Z,29.36
2023-03-22T15:15:21.440Z,29.43
2023-03-22T15:19:21.541Z,29.42
2023-03-22T15:23:21.484Z,29.42
2023-03-22T15:27:21.632Z,29.43
2023-03-22T15:31:21.852Z,29.54
2023-03-22T15:35:22.023Z,29.48
2023-03-22T15:39:22.305Z,29.49
2023-03-22T15:43:22.547Z,29.48
2023-03-22T15:47:22.772Z,29.50
2023-03-22T15:51:23.017Z,29.58
2023-03-22T15:55:23.225Z,29.59
2023-03-22T15:59:23.358Z,29.62
2023-03-22T16:03:23.596Z,29.62
2023-03-22T16:07:23.712Z,29.66
2023-03-22T16:11:23.787Z,29.63
2023-03-22T16:15:23.868Z,29.65
2023-03-22T16:19:23.915Z,29.61
2023-03-22T16:23:23.974Z,29.66
2023-03-22T16:27:24.117Z,29.70
2023-03-22T16:31:24.181Z,29.70
2023-03-22T16:35:24.161Z,29.75
2023-03-22T16:39:24.208Z,29.73
2023-03-22T16:43:24.296Z,29.76
2023-03-22T16:47:24.378Z,29.80
2023-03-22T16:51:24.458Z,29.76
2023-03-22T16:55:24.519Z,29.79
2023-03-22T16:59:24.593Z,29.80
2023-03-22T17:03:24.667Z,29.86
2023-03-22T17:07:24.717Z,29.83
2023-03-22T17:11:24.865Z,29.86
2023-03-22T17:15:24.852Z,29.96
2023-03-22T17:19:24.925Z,29.90
2023-03-22T17:23:25.047Z,29.91
2023-03-22T17:27:25.165Z,29.93
2023-03-22T17:31:25.340Z,29.94
2023-03-22T17:35:25.346Z,29.98
2023-03-22T17:39:48.304Z,30.00
2023-03-22T17:43:26.608Z,30.00
2023-03-22T17:51:25.637Z,30.06
2023-03-22T17:55:42.580Z,30.07
2023-03-22T17:59:26.779Z,30.07
2023-03-22T18:03:25.824Z,30.11
2023-03-22T18:07:25.874Z,30.10
2023-03-22T18:11:25.928Z,30.04
2023-03-22T18:15:26.025Z,30.04
2023-03-22T18:19:26.075Z,30.07
2023-03-22T18:23:26.115Z,30.11
2023-03-22T18:27:26.520Z,30.14
2023-03-22T18:31:27.035Z,30.15
2023-03-22T18:35:26.443Z,30.10
2023-03-22T18:43:27.633Z,30.12
2023-03-22T18:47:26.689Z,30.15
2023-03-22T18:51:31.815Z,30.16
2023-03-22T18:55:29.964Z,30.19
2023-03-22T18:59:27.851Z,30.19
2023-03-22T19:03:26.938Z,30.16
2023-03-22T19:07:46.931Z,30.13
2023-03-22T19:11:28.066Z,30.19
2023-03-22T19:19:27.214Z,30.20
2023-03-22T19:23:27.284Z,30.17
2023-03-22T19:27:28.323Z,30.16
2023-03-22T19:31:27.377Z,30.20
2023-03-22T19:35:27.433Z,30.17
2023-03-22T19:39:27.488Z,30.24
2023-03-22T19:43:27.631Z,30.21
2023-03-22T19:47:27.825Z,30.23
2023-03-22T19:51:27.940Z,30.24
2023-03-22T19:55:28.071Z,30.18
2023-03-22T19:59:31.538Z,30.21
2023-03-22T20:03:28.273Z,30.24
2023-03-22T20:07:28.350Z,30.19
2023-03-22T20:11:35.059Z,30.27
2023-03-22T20:15:29.434Z,30.24
2023-03-22T20:19:28.497Z,30.27
2023-03-22T20:23:28.568Z,30.28
2023-03-22T20:27:28.617Z,30.26
2023-03-22T20:31:28.829Z,30.26
2023-03-22T20:35:28.960Z,30.31
2023-03-22T20:39:29.144Z,30.26
2023-03-22T20:43:29.319Z,30.26
2023-03-22T20:47:29.505Z,30.24
2023-03-22T20:51:29.682Z,30.24
2023-03-22T20:55:29.873Z,30.24
2023-03-22T20:59:30.056Z,30.22
2023-03-22T21:03:30.221Z,30.22
2023-03-22T21:07:30.451Z,30.24
2023-03-22T21:11:30.649Z,30.19
2023-03-22T21:15:30.870Z,30.25
2023-03-22T21:19:31.065Z,30.22
2023-03-22T21:23:31.286Z,30.22
2023-03-22T21:27:31.506Z,30.19
2023-03-22T21:31:31.719Z,30.22
2023-03-22T21:35:31.946Z,30.22
2023-03-22T21:39:32.156Z,30.20
2023-03-22T21:43:32.375Z,30.23
2023-03-22T21:47:32.609Z,30.23
2023-03-22T21:51:32.821Z,30.23
2023-03-22T21:55:33.017Z,30.18
2023-03-22T21:59:33.225Z,30.24
2023-03-22T22:03:33.440Z,30.20
2023-03-22T22:07:33.649Z,30.20
2023-03-22T22:11:33.877Z,30.18
2023-03-22T22:15:34.107Z,30.24
2023-03-22T22:19:34.335Z,30.20
2023-03-22T22:23:34.533Z,30.27
2023-03-22T22:27:34.750Z,30.21
2023-03-22T22:31:34.992Z,30.24
2023-03-22T22:35:35.230Z,30.21
2023-03-22T22:39:35.417Z,30.21
2023-03-22T22:43:35.607Z,30.21
2023-03-22T22:47:35.833Z,30.18
2023-03-22T22:51:36.057Z,30.21
2023-03-22T22:55:36.317Z,30.21
2023-03-22T22:59:36.557Z,30.23
2023-03-22T23:03:36.817Z,30.18
2023-03-22T23:07:37.018Z,30.19
2023-03-22T23:11:37.253Z,30.19
2023-03-22T23:15:37.511Z,30.18
2023-03-22T23:19:37.784Z,30.16
2023-03-22T23:23:38.045Z,30.13
2023-03-22T23:27:39.132Z,30.20
2023-03-22T23:31:39.203Z,30.18
2023-03-22T23:35:38.312Z,30.16
2023-03-22T23:39:38.357Z,30.19
2023-03-22T23:43:38.439Z,30.18
2023-03-22T23:47:38.500Z,30.20
2023-03-22T23:51:39.230Z,30.16
2023-03-22T23:55:38.852Z,30.18
2023-03-22T23:59:39.086Z,30.15
